Latest Weather Observations for Tamworth Airport

IDN60801

Issued at 7:03 am EST Sunday 30 August 2015 (issued every 30 minutes, with the page automatically refreshed every 10 minutes)

About weather observations | Map of weather stations | Latest weather observations for NSW | Other Formats
Station Details ID: 055325 Name: TAMWORTH AIRPORT AWS Lat: -31.07 Lon: 150.84 Height: 394.9 m
Data from the previous 72 hours. | See also: Recent months at Tamworth Airport
Date/Time
EST
Temp
°C
App
Temp
°C
Dew
Point
Rel
Hum
%
Delta-T
°C
Wind Press
QNH
hPa
Press
MSL
hPa
Rain
since 9 am
mm
Dir
 
Spd
km/h
Gust
km/h
Spd
kts
Gust
kts
30/07:00am 3.3 1.6 2.1 92 0.5 CALM 0 4 0 2 1019.9 1020.1 0.0
30/06:30am 2.0 0.1 0.7 91 0.5 CALM 0 0 0 0 1019.6 1019.8 0.0
30/06:00am 2.0 -0.3 0.5 90 0.6 NNE 2 6 1 3 1019.6 1019.8 0.0
30/05:49am 2.0 -0.7 0.4 89 0.6 N 4 7 2 4 1019.5 1019.7 0.0
30/05:30am 3.1 -0.3 1.6 90 0.6 SE 9 11 5 6 1019.4 1019.6 0.0
30/05:00am 3.4 -0.4 1.6 88 0.7 SSE 11 13 6 7 1019.4 1019.6 0.0
30/04:30am 4.1 1.1 2.1 87 0.8 SE 7 9 4 5 1019.3 1019.5 0.0
30/04:00am 5.6 4.2 3.6 87 0.9 CALM 0 0 0 0 1019.4 1019.6 0.0
30/03:30am 6.0 4.7 4.2 88 0.8 CALM 0 0 0 0 1019.6 1019.8 0.0
30/03:00am 6.2 5.0 4.4 88 0.8 CALM 0 0 0 0 1019.9 1020.1 0.0
30/02:30am 6.0 4.0 4.3 89 0.7 NE 4 6 2 3 1020.1 1020.3 0.0
30/02:00am 6.0 3.6 4.3 89 0.7 E 6 7 3 4 1020.3 1020.5 0.0
30/01:30am 5.5 2.8 3.8 89 0.7 ESE 7 9 4 5 1020.4 1020.6 0.0
30/01:00am 5.5 4.1 3.8 89 0.7 CALM 0 0 0 0 1020.8 1020.9 0.0
30/12:30am 5.0 2.2 3.2 88 0.8 WNW 7 9 4 5 1021.2 1021.3 0.0
30/12:00am 5.7 3.2 3.5 86 0.9 N 6 9 3 5 1021.3 1021.4 0.0
 
Date/Time
EST
Temp
°C
App
Temp
°C
Dew
Point
Rel
Hum
%
Delta-T
°C
Wind Press
QNH
hPa
Press
MSL
hPa
Rain
since 9 am
mm
Dir
 
Spd
km/h
Gust
km/h
Spd
kts
Gust
kts
29/11:30pm 5.5 2.4 3.7 88 0.8 NE 9 11 5 6 1021.5 1021.7 0.0
29/11:00pm 5.2 2.4 3.1 86 0.9 NE 7 9 4 5 1021.8 1022.0 0.0
29/10:30pm 5.8 3.0 3.1 83 1.1 NNW 7 11 4 6 1021.5 1021.7 0.0
29/10:00pm 7.1 5.0 4.1 81 1.3 NNE 4 7 2 4 1021.3 1021.4 0.0
29/09:30pm 7.0 4.5 3.8 80 1.4 N 6 11 3 6 1021.3 1021.4 0.0
29/09:00pm 7.9 6.7 4.5 79 1.5 CALM 0 0 0 0 1021.2 1021.3 0.0
29/08:30pm 7.9 5.3 4.3 78 1.6 E 7 11 4 6 1021.2 1021.3 0.0
29/08:00pm 8.9 5.6 4.5 74 2.0 SW 11 13 6 7 1021.2 1021.3 0.0
29/07:30pm 9.1 5.7 5.7 79 1.6 WSW 13 17 7 9 1021.1 1021.2 0.0
29/07:00pm 10.2 9.0 4.6 68 2.6 CALM 0 0 0 0 1021.1 1021.2 0.0
29/06:30pm 11.6 10.4 4.6 62 3.2 CALM 0 0 0 0 1020.9 1021.0 0.0
29/06:00pm 12.6 11.2 5.3 61 3.5 N 2 6 1 3 1020.5 1020.7 0.0
29/05:30pm 13.7 12.6 5.3 57 4.0 CALM 0 0 0 0 1020.6 1020.8 0.0
29/05:00pm 14.0 11.7 5.6 57 4.0 SW 7 9 4 5 1020.2 1020.4 0.0
29/04:30pm 14.1 11.8 5.5 56 4.1 WSW 7 11 4 6 1020.1 1020.3 0.0
29/04:00pm 14.5 11.6 4.8 52 4.6 W 9 15 5 8 1020.2 1020.4 0.0
29/03:30pm 15.3 12.5 5.2 51 4.9 WNW 9 11 5 6 1020.1 1020.3 0.0
29/03:00pm 15.4 12.3 5.6 52 4.8 NW 11 17 6 9 1020.5 1020.7 0.0
29/02:30pm 15.3 12.0 4.4 48 5.2 WNW 11 19 6 10 1020.5 1020.7 0.0
29/02:00pm 16.4 13.8 6.0 50 5.1 NW 9 26 5 14 1020.8 1020.9 0.0
29/01:30pm 16.0 12.5 5.6 50 5.1 W 13 20 7 11 1021.2 1021.3 0.0
29/01:00pm 15.5 12.5 3.9 46 5.4 WNW 9 15 5 8 1021.7 1021.9 0.0
29/12:30pm 15.3 11.3 4.7 49 5.1 NNW 15 22 8 12 1022.3 1022.5 0.0
29/12:00pm 15.2 11.4 4.0 47 5.3 NW 13 20 7 11 1022.8 1023.0 0.0
29/11:30am 14.4 10.3 4.4 51 4.7 NW 15 24 8 13 1023.5 1023.6 0.0
29/11:00am 14.1 11.1 6.2 59 3.8 NW 11 19 6 10 1023.9 1024.1 0.0
29/10:30am 12.6 9.7 4.8 59 3.7 NNW 9 11 5 6 1024.0 1024.2 0.0
29/10:00am 12.3 9.8 5.0 61 3.4 NE 7 11 4 6 1024.4 1024.6 0.0
29/09:30am 10.1 7.7 4.5 68 2.6 S 6 11 3 6 1024.7 1024.9 0.0
29/09:00am 9.1 7.2 4.9 75 1.9 SW 4 9 2 5 1024.9 1025.1 0.0
29/08:30am 7.3 5.2 4.1 80 1.4 SSE 4 9 2 5 1024.7 1024.9 0.0
29/08:00am 6.3 3.6 3.5 82 1.2 SE 7 9 4 5 1024.6 1024.8 0.0
29/07:30am 5.2 2.1 3.4 88 0.8 SE 9 11 5 6 1024.5 1024.7 0.0
29/07:00am 2.1 -0.9 0.9 92 0.5 S 6 9 3 5 1024.3 1024.5 0.0
29/06:30am 0.4 -1.8 -1.2 89 0.6 CALM 0 0 0 0 1024.2 1024.4 0.0
29/06:00am 1.6 -2.0 0.4 92 0.5 S 9 11 5 6 1023.9 1024.1 0.0
29/05:30am 1.9 -1.1 0.6 91 0.5 SE 6 7 3 4 1023.8 1024.0 0.0
29/05:00am 1.9 -1.7 0.6 91 0.5 SE 9 11 5 6 1023.5 1023.6 0.0
29/04:30am 1.8 -1.4 0.5 91 0.5 ESE 7 11 4 6 1023.5 1023.6 0.0
29/04:00am 1.8 -1.8 0.6 92 0.5 S 9 13 5 7 1023.2 1023.4 0.0
29/03:30am 1.2 -2.1 -0.1 91 0.5 WSW 7 9 4 5 1023.6 1023.8 0.0
29/03:29am 1.1 -2.2 -0.2 91 0.5 WSW 7 9 4 5 1023.6 1023.8 0.0
29/03:10am 1.2 -2.6 -0.7 87 0.7 S 9 17 5 9 1023.5 1023.6 0.0
29/03:00am 2.8 0.6 1.3 90 0.6 E 2 7 1 4 1023.3 1023.5 0.0
29/02:30am 2.7 -0.8 1.1 89 0.6 SE 9 11 5 6 1023.6 1023.8 0.0
29/02:00am 2.8 -1.1 1.0 88 0.7 SE 11 13 6 7 1023.9 1024.1 0.0
29/01:30am 3.3 0.1 1.0 85 0.9 SE 7 9 4 5 1024.2 1024.4 0.0
29/01:00am 4.6 3.1 2.9 89 0.7 CALM 0 0 0 0 1024.3 1024.5 0.0
29/12:30am 3.8 2.1 1.7 86 0.8 CALM 0 0 0 0 1024.4 1024.6 0.0
29/12:00am 4.0 2.3 2.0 87 0.8 CALM 0 0 0 0 1024.4 1024.6 0.0
 
Date/Time
EST
Temp
°C
App
Temp
°C
Dew
Point
Rel
Hum
%
Delta-T
°C
Wind Press
QNH
hPa
Press
MSL
hPa
Rain
since 9 am
mm
Dir
 
Spd
km/h
Gust
km/h
Spd
kts
Gust
kts
28/11:30pm 4.6 3.0 2.3 85 0.9 CALM 0 0 0 0 1024.3 1024.5 0.0
28/11:00pm 4.4 2.7 2.1 85 0.9 CALM 0 0 0 0 1024.3 1024.5 0.0
28/10:30pm 5.6 3.3 2.8 82 1.2 E 4 7 2 4 1024.4 1024.6 0.0
28/10:00pm 6.2 3.9 3.0 80 1.4 N 4 7 2 4 1024.3 1024.5 0.0
28/09:30pm 7.1 4.6 3.7 79 1.5 NE 6 9 3 5 1024.3 1024.5 0.0
28/09:00pm 7.1 4.6 3.7 79 1.5 NE 6 7 3 4 1024.3 1024.5 0.0
28/08:30pm 6.4 4.2 3.6 82 1.2 NNW 4 7 2 4 1024.2 1024.4 0.0
28/08:00pm 6.8 4.2 3.4 79 1.5 NW 6 7 3 4 1023.9 1024.1 0.0
28/07:30pm 8.0 4.4 2.9 70 2.2 SW 11 13 6 7 1023.1 1023.3 0.0
28/07:00pm 8.8 6.2 3.0 67 2.5 SW 6 9 3 5 1022.8 1023.0 0.0
28/06:30pm 10.0 6.8 3.3 63 3.0 WSW 9 11 5 6 1022.6 1022.8 0.0
28/06:00pm 11.3 8.6 3.6 59 3.5 WSW 7 9 4 5 1022.4 1022.6 0.0
28/05:30pm 13.3 10.5 3.4 51 4.5 W 7 9 4 5 1022.0 1022.2 0.0
28/05:00pm 14.8 10.8 2.7 44 5.5 W 13 17 7 9 1021.8 1022.0 0.0
28/04:30pm 15.6 12.1 3.4 44 5.7 W 11 20 6 11 1021.6 1021.8 0.0
28/04:00pm 16.0 13.0 4.1 45 5.6 W 9 17 5 9 1021.6 1021.8 0.0
28/03:30pm 15.1 11.2 3.6 46 5.4 WNW 13 19 7 10 1021.7 1021.9 0.0
28/03:00pm 14.9 11.4 3.7 47 5.2 WSW 11 17 6 9 1021.8 1022.0 0.0
28/02:30pm 14.7 11.4 4.4 50 4.9 W 11 17 6 9 1021.8 1022.0 0.0
28/02:00pm 15.6 10.8 4.6 48 5.2 NW 19 32 10 17 1022.0 1022.2 0.0
28/01:30pm 14.3 10.6 4.3 51 4.7 WSW 13 19 7 10 1022.3 1022.5 0.0
28/01:00pm 14.3 9.2 3.2 47 5.1 WSW 19 24 10 13 1022.8 1023.0 0.0
28/12:30pm 14.6 9.3 2.8 45 5.4 WSW 20 28 11 15 1023.0 1023.2 0.0
28/12:00pm 13.9 9.3 3.7 50 4.7 WNW 17 28 9 15 1023.5 1023.6 0.0
28/11:30am 14.7 10.2 4.4 50 4.9 WNW 17 24 9 13 1023.8 1024.0 0.0
28/11:00am 14.0 9.7 5.1 55 4.2 WNW 17 24 9 13 1024.2 1024.4 0.0
28/10:30am 12.8 8.8 5.0 59 3.7 WNW 15 24 8 13 1024.4 1024.6 0.0
28/10:00am 12.3 8.9 6.1 66 3.0 WNW 13 24 7 13 1024.4 1024.6 0.0
28/09:30am 11.6 7.6 6.7 72 2.4 WNW 17 22 9 12 1024.5 1024.7 0.0
28/09:27am 11.3 7.7 6.6 73 2.3 WNW 15 22 8 12 1024.5 1024.7 0.0
28/09:02am 11.0 7.6 7.5 79 1.7 NNW 15 20 8 11 1024.5 1024.7 0.0
28/09:00am 10.8 7.4 7.5 80 1.6 N 15 20 8 11 1024.5 1024.7 1.0
28/08:30am 9.6 6.6 7.9 89 0.8 NNW 13 17 7 9 1024.3 1024.5 1.0
28/08:23am 9.1 6.6 8.0 93 0.5 N 11 15 6 8 1024.2 1024.4 1.0
28/08:00am 8.0 6.0 6.9 93 0.5 N 7 9 4 5 1024.2 1024.4 1.0
28/07:30am 6.5 4.2 5.5 93 0.5 WNW 7 9 4 5 1023.9 1024.1 1.0
28/07:00am 4.2 1.4 3.0 92 0.5 NW 7 11 4 6 1023.6 1023.8 1.0
28/06:30am 3.3 0.3 2.1 92 0.5 NW 7 9 4 5 1023.1 1023.3 0.8
28/06:00am 2.3 -0.7 1.0 91 0.5 N 6 7 3 4 1022.8 1023.0 0.8
28/05:30am 4.5 1.9 3.3 92 0.5 N 6 6 3 3 1022.5 1022.7 0.8
28/05:14am 4.6 1.8 3.4 92 0.5 NNW 7 9 4 5 1022.4 1022.6 0.8
28/05:00am 4.8 2.3 3.6 92 0.5 N 6 9 3 5 1022.3 1022.5 0.8
28/04:30am 5.6 4.0 4.4 92 0.5 NNE 2 6 1 3 1022.0 1022.2 0.8
28/04:00am 5.5 3.1 4.3 92 0.5 N 6 7 3 4 1021.9 1022.1 0.8
28/03:30am 5.1 2.4 3.9 92 0.5 NW 7 9 4 5 1021.8 1022.0 0.8
28/03:00am 5.7 2.4 4.5 92 0.5 NW 11 13 6 7 1021.6 1021.8 0.8
28/02:30am 6.0 2.0 4.8 92 0.5 NW 15 15 8 8 1021.9 1022.1 0.8
28/02:23am 5.8 2.1 4.6 92 0.5 NW 13 15 7 8 1021.9 1022.1 0.8
28/02:00am 5.8 2.9 4.6 92 0.5 NNW 9 11 5 6 1021.9 1022.1 0.8
28/01:30am 6.8 4.1 5.6 92 0.5 N 9 11 5 6 1022.2 1022.4 0.8
28/01:01am 7.4 4.8 6.2 92 0.6 N 9 11 5 6 1022.4 1022.6 0.8
28/01:00am 7.3 4.7 6.1 92 0.6 N 9 11 5 6 1022.4 1022.6 0.8
28/12:30am 7.9 5.4 6.7 92 0.6 N 9 11 5 6 1022.5 1022.7 0.8
28/12:12am 7.3 5.0 5.9 91 0.6 N 7 9 4 5 1022.5 1022.7 0.8
28/12:00am 6.9 4.6 5.7 92 0.5 NNW 7 9 4 5 1022.5 1022.7 0.8
 
Date/Time
EST
Temp
°C
App
Temp
°C
Dew
Point
Rel
Hum
%
Delta-T
°C
Wind Press
QNH
hPa
Press
MSL
hPa
Rain
since 9 am
mm
Dir
 
Spd
km/h
Gust
km/h
Spd
kts
Gust
kts
27/11:30pm 7.2 6.2 5.8 91 0.6 CALM 0 9 0 5 1022.4 1022.6 0.8
27/11:20pm 7.1 6.2 5.9 92 0.6 CALM 0 0 0 0 1022.4 1022.6 0.8
27/11:06pm 8.0 6.5 6.8 92 0.6 SW 4 9 2 5 1022.5 1022.7 0.8
27/11:00pm 8.0 5.6 6.8 92 0.6 SW 9 13 5 7 1022.5 1022.7 0.8
27/10:34pm 7.5 6.2 6.1 91 0.6 W 2 11 1 6 1022.6 1022.8 0.8
27/10:30pm 7.0 6.0 5.6 91 0.6 CALM 0 0 0 0 1022.4 1022.6 0.8
27/10:05pm 7.4 6.5 6.0 91 0.6 CALM 0 6 0 3 1022.5 1022.7 0.8
27/10:00pm 7.3 6.0 5.9 91 0.6 NNW 2 7 1 4 1022.5 1022.7 0.8
27/09:30pm 8.4 6.6 7.2 92 0.6 WNW 6 6 3 3 1022.5 1022.7 0.6
27/09:16pm 8.0 7.2 6.6 91 0.7 CALM 0 6 0 3 1022.6 1022.8 0.6
27/09:00pm 7.6 6.7 5.9 89 0.8 CALM 0 0 0 0 1022.4 1022.6 0.6
27/08:30pm 8.3 7.6 6.8 90 0.7 CALM 0 0 0 0 1022.3 1022.5 0.6
27/08:00pm 8.6 6.7 6.9 89 0.8 NW 6 9 3 5 1021.9 1022.1 0.6
27/07:30pm 9.5 7.7 7.8 89 0.8 N 7 9 4 5 1021.7 1021.9 0.6
27/07:00pm 9.9 8.3 8.2 89 0.8 N 6 11 3 6 1021.5 1021.7 0.6
27/06:30pm 10.3 7.9 8.6 89 0.9 N 11 13 6 7 1021.2 1021.3 0.6
27/06:00pm 10.7 8.4 9.0 89 0.9 N 11 13 6 7 1021.0 1021.1 0.6
27/05:45pm 10.9 9.0 9.2 89 0.9 N 9 13 5 7 1021.0 1021.1 0.6
27/05:30pm 11.1 8.8 9.0 87 1.1 NNW 11 13 6 7 1020.9 1021.0 0.6
27/05:10pm 11.2 8.6 9.3 88 1.0 N 13 15 7 8 1020.6 1020.8 0.6
27/05:00pm 11.4 9.2 9.5 88 1.0 N 11 13 6 7 1020.6 1020.8 0.4
27/04:30pm 11.2 8.5 9.1 87 1.1 N 13 15 7 8 1020.5 1020.7 0.4
27/04:00pm 11.3 8.6 8.9 85 1.2 NNW 13 17 7 9 1020.6 1020.8 0.4
27/03:30pm 11.4 8.7 9.0 85 1.2 NNW 13 17 7 9 1020.8 1020.9 0.4
27/03:27pm 11.4 8.7 9.0 85 1.2 NNW 13 17 7 9 1020.8 1020.9 0.4
27/03:26pm 11.4 8.7 9.0 85 1.2 NNW 13 17 7 9 1020.8 1020.9 0.4
27/03:10pm 11.2 7.7 8.8 85 1.2 NW 17 20 9 11 1020.9 1021.0 0.4
27/03:06pm 11.6 8.5 9.0 84 1.3 NW 15 20 8 11 1020.8 1020.9 0.4
27/03:00pm 11.9 8.8 8.9 82 1.5 WNW 15 20 8 11 1020.8 1020.9 0.4
27/02:30pm 12.4 9.2 8.5 77 2.0 WNW 15 20 8 11 1021.0 1021.1 0.4
27/02:00pm 12.4 9.2 8.5 77 2.0 WNW 15 20 8 11 1021.1 1021.2 0.4
27/01:30pm 12.5 9.4 8.8 78 1.9 WNW 15 19 8 10 1021.2 1021.3 0.4
27/01:00pm 12.4 9.4 9.2 81 1.6 WNW 15 20 8 11 1021.6 1021.8 0.2
27/12:30pm 13.0 10.3 8.9 76 2.1 WNW 13 17 7 9 1022.2 1022.4 0.0
27/12:00pm 13.3 10.5 8.6 73 2.4 NW 13 17 7 9 1022.4 1022.6 0.0
27/11:30am 13.0 10.2 8.5 74 2.3 NW 13 17 7 9 1022.7 1022.9 0.0
27/11:00am 12.8 10.6 9.3 79 1.8 WNW 11 13 6 7 1022.8 1023.0 0.0
27/10:30am 12.7 10.8 9.0 78 1.9 WNW 9 13 5 7 1022.7 1022.9 0.0
27/10:00am 12.6 10.7 8.9 78 1.9 NNW 9 13 5 7 1022.6 1022.8 0.0
27/09:30am 12.0 10.9 8.3 78 1.9 NNW 4 9 2 5 1022.7 1022.9 0.0
27/09:00am 11.4 9.9 8.6 83 1.4 SW 6 7 3 4 1022.7 1022.9 0.0
27/08:30am 10.4 8.8 8.0 85 1.2 SE 6 9 3 5 1022.7 1022.9 0.0
27/08:00am 9.7 7.9 7.8 88 0.9 ESE 7 11 4 6 1022.8 1023.0 0.0
27/07:30am 8.9 7.2 7.5 91 0.7 ESE 6 9 3 5 1022.4 1022.6 0.0

Other Formats:

Comma delimited format used in spreadsheet applications
http://www.bom.gov.au/fwo/IDN60801/IDN60801.95762.axf

JavaScript Object Notation format (JSON) in row-major order
http://www.bom.gov.au/fwo/IDN60801/IDN60801.95762.json